sensor_id;sensor_type;location;lat;lon;timestamp;pressure;altitude;pressure_sealevel;temperature;humidity
11345;BME280;5727;42.600;23.028;2024-01-11T00:00:43;94545.03;;;-4.42;100.00
11345;BME280;5727;42.600;23.028;2024-01-11T00:03:12;94542.69;;;-4.44;100.00
11345;BME280;5727;42.600;23.028;2024-01-11T00:05:39;94547.25;;;-4.46;100.00
11345;BME280;5727;42.600;23.028;2024-01-11T00:08:07;94537.19;;;-4.47;100.00
11345;BME280;5727;42.600;23.028;2024-01-11T00:10:34;94541.00;;;-4.50;100.00
11345;BME280;5727;42.600;23.028;2024-01-11T00:13:01;94532.19;;;-4.54;100.00
11345;BME280;5727;42.600;23.028;2024-01-11T00:15:29;94527.13;;;-4.60;100.00
11345;BME280;5727;42.600;23.028;2024-01-11T00:17:56;94527.47;;;-4.57;100.00
11345;BME280;5727;42.600;23.028;2024-01-11T00:20:24;94519.59;;;-4.55;100.00
11345;BME280;5727;42.600;23.028;2024-01-11T00:22:51;94519.22;;;-4.59;100.00
11345;BME280;5727;42.600;23.028;2024-01-11T00:25:18;94518.47;;;-4.59;100.00
11345;BME280;5727;42.600;23.028;2024-01-11T00:27:45;94515.13;;;-4.60;100.00
11345;BME280;5727;42.600;23.028;2024-01-11T00:30:12;94514.13;;;-4.59;100.00
11345;BME280;5727;42.600;23.028;2024-01-11T00:32:39;94521.94;;;-4.54;100.00
11345;BME280;5727;42.600;23.028;2024-01-11T00:35:06;94518.03;;;-4.56;100.00
11345;BME280;5727;42.600;23.028;2024-01-11T00:37:35;94513.13;;;-4.58;100.00
11345;BME280;5727;42.600;23.028;2024-01-11T00:40:02;94508.25;;;-4.59;100.00
11345;BME280;5727;42.600;23.028;2024-01-11T00:42:30;94510.22;;;-4.61;100.00
11345;BME280;5727;42.600;23.028;2024-01-11T00:44:57;94500.41;;;-4.65;100.00
11345;BME280;5727;42.600;23.028;2024-01-11T00:47:24;94509.44;;;-4.62;100.00
11345;BME280;5727;42.600;23.028;2024-01-11T00:49:51;94510.44;;;-4.63;100.00
11345;BME280;5727;42.600;23.028;2024-01-11T00:52:18;94506.66;;;-4.60;100.00
11345;BME280;5727;42.600;23.028;2024-01-11T00:54:46;94502.34;;;-4.60;100.00
11345;BME280;5727;42.600;23.028;2024-01-11T00:57:13;94508.25;;;-4.59;100.00
11345;BME280;5727;42.600;23.028;2024-01-11T00:59:40;94509.22;;;-4.60;100.00
11345;BME280;5727;42.600;23.028;2024-01-11T01:02:07;94505.69;;;-4.59;100.00
11345;BME280;5727;42.600;23.028;2024-01-11T01:04:37;94501.19;;;-4.64;100.00
11345;BME280;5727;42.600;23.028;2024-01-11T01:07:04;94507.66;;;-4.61;100.00
11345;BME280;5727;42.600;23.028;2024-01-11T01:09:32;94504.75;;;-4.65;100.00
11345;BME280;5727;42.600;23.028;2024-01-11T01:12:00;94503.75;;;-4.64;100.00
11345;BME280;5727;42.600;23.028;2024-01-11T01:14:27;94506.53;;;-4.66;100.00
11345;BME280;5727;42.600;23.028;2024-01-11T01:16:54;94501.63;;;-4.67;100.00
11345;BME280;5727;42.600;23.028;2024-01-11T01:19:21;94500.06;;;-4.68;100.00
11345;BME280;5727;42.600;23.028;2024-01-11T01:21:48;94501.06;;;-4.69;100.00
11345;BME280;5727;42.600;23.028;2024-01-11T01:24:15;94499.06;;;-4.67;100.00
11345;BME280;5727;42.600;23.028;2024-01-11T01:26:42;94505.44;;;-4.76;100.00
11345;BME280;5727;42.600;23.028;2024-01-11T01:29:10;94494.25;;;-4.75;100.00
11345;BME280;5727;42.600;23.028;2024-01-11T01:31:37;94493.66;;;-4.77;100.00
11345;BME280;5727;42.600;23.028;2024-01-11T01:34:04;94490.69;;;-4.74;100.00
11345;BME280;5727;42.600;23.028;2024-01-11T01:36:31;94489.47;;;-4.72;100.00
11345;BME280;5727;42.600;23.028;2024-01-11T01:38:58;94491.25;;;-4.72;100.00
11345;BME280;5727;42.600;23.028;2024-01-11T01:41:25;94492.25;;;-4.73;100.00
11345;BME280;5727;42.600;23.028;2024-01-11T01:43:52;94487.56;;;-4.76;100.00
11345;BME280;5727;42.600;23.028;2024-01-11T01:46:23;94483.84;;;-4.80;100.00
11345;BME280;5727;42.600;23.028;2024-01-11T01:48:50;94476.41;;;-4.82;100.00
11345;BME280;5727;42.600;23.028;2024-01-11T01:51:18;94473.06;;;-4.82;100.00
11345;BME280;5727;42.600;23.028;2024-01-11T01:53:46;94474.19;;;-4.78;100.00
11345;BME280;5727;42.600;23.028;2024-01-11T01:56:13;94469.53;;;-4.81;100.00
11345;BME280;5727;42.600;23.028;2024-01-11T01:58:40;94471.16;;;-4.87;100.00
11345;BME280;5727;42.600;23.028;2024-01-11T02:01:08;94469.41;;;-4.86;100.00
11345;BME280;5727;42.600;23.028;2024-01-11T02:03:37;94472.53;;;-4.84;100.00
11345;BME280;5727;42.600;23.028;2024-01-11T02:06:05;94469.19;;;-4.85;100.00
11345;BME280;5727;42.600;23.028;2024-01-11T02:08:33;94465.81;;;-4.85;100.00
11345;BME280;5727;42.600;23.028;2024-01-11T02:11:01;94460.16;;;-4.87;100.00
11345;BME280;5727;42.600;23.028;2024-01-11T02:13:28;94459.00;;;-4.91;100.00
11345;BME280;5727;42.600;23.028;2024-01-11T02:15:55;94462.13;;;-4.89;100.00
11345;BME280;5727;42.600;23.028;2024-01-11T02:18:22;94457.25;;;-4.91;100.00
11345;BME280;5727;42.600;23.028;2024-01-11T02:20:51;94452.75;;;-4.95;100.00
11345;BME280;5727;42.600;23.028;2024-01-11T02:23:19;94450.00;;;-4.94;100.00
11345;BME280;5727;42.600;23.028;2024-01-11T02:25:49;94451.00;;;-4.95;100.00
11345;BME280;5727;42.600;23.028;2024-01-11T02:28:16;94446.50;;;-4.99;100.00
11345;BME280;5727;42.600;23.028;2024-01-11T02:30:43;94453.59;;;-5.01;100.00
11345;BME280;5727;42.600;23.028;2024-01-11T02:33:10;94454.03;;;-5.04;100.00
11345;BME280;5727;42.600;23.028;2024-01-11T02:35:41;94459.94;;;-5.04;100.00
11345;BME280;5727;42.600;23.028;2024-01-11T02:38:08;94454.81;;;-5.04;100.00
11345;BME280;5727;42.600;23.028;2024-01-11T02:40:37;94458.78;;;-5.08;100.00
11345;BME280;5727;42.600;23.028;2024-01-11T02:43:09;94460.78;;;-5.10;100.00
11345;BME280;5727;42.600;23.028;2024-01-11T02:45:37;94456.84;;;-5.12;100.00
11345;BME280;5727;42.600;23.028;2024-01-11T02:48:07;94451.19;;;-5.14;100.00
11345;BME280;5727;42.600;23.028;2024-01-11T02:50:34;94449.41;;;-5.14;100.00
11345;BME280;5727;42.600;23.028;2024-01-11T02:53:00;94451.75;;;-5.12;100.00
11345;BME280;5727;42.600;23.028;2024-01-11T02:55:27;94445.84;;;-5.13;100.00
11345;BME280;5727;42.600;23.028;2024-01-11T02:57:54;94443.50;;;-5.14;100.00
11345;BME280;5727;42.600;23.028;2024-01-11T03:00:23;94436.28;;;-5.17;100.00
11345;BME280;5727;42.600;23.028;2024-01-11T03:02:50;94438.63;;;-5.16;100.00
11345;BME280;5727;42.600;23.028;2024-01-11T03:05:16;94429.41;;;-5.17;100.00
11345;BME280;5727;42.600;23.028;2024-01-11T03:07:43;94431.75;;;-5.15;100.00
11345;BME280;5727;42.600;23.028;2024-01-11T03:10:10;94434.31;;;-5.15;100.00
11345;BME280;5727;42.600;23.028;2024-01-11T03:12:39;94432.31;;;-5.13;100.00
11345;BME280;5727;42.600;23.028;2024-01-11T03:15:06;94423.66;;;-5.12;100.00
11345;BME280;5727;42.600;23.028;2024-01-11T03:17:35;94429.19;;;-5.15;100.00
11345;BME280;5727;42.600;23.028;2024-01-11T03:20:02;94429.41;;;-5.17;100.00
11345;BME280;5727;42.600;23.028;2024-01-11T03:22:31;94427.84;;;-5.18;100.00
11345;BME280;5727;42.600;23.028;2024-01-11T03:24:57;94431.75;;;-5.15;100.00
11345;BME280;5727;42.600;23.028;2024-01-11T03:27:25;94427.03;;;-5.18;100.00
11345;BME280;5727;42.600;23.028;2024-01-11T03:29:51;94421.53;;;-5.15;100.00
11345;BME280;5727;42.600;23.028;2024-01-11T03:32:18;94417.22;;;-5.15;100.00
11345;BME280;5727;42.600;23.028;2024-01-11T03:34:47;94421.75;;;-5.17;100.00
11345;BME280;5727;42.600;23.028;2024-01-11T03:37:14;94430.66;;;-5.26;100.00
11345;BME280;5727;42.600;23.028;2024-01-11T03:39:42;94418.69;;;-5.25;100.00
11345;BME280;5727;42.600;23.028;2024-01-11T03:42:08;94416.97;;;-5.31;100.00
11345;BME280;5727;42.600;23.028;2024-01-11T03:44:36;94424.63;;;-5.31;100.00
11345;BME280;5727;42.600;23.028;2024-01-11T03:47:03;94419.72;;;-5.33;100.00
11345;BME280;5727;42.600;23.028;2024-01-11T03:49:30;94422.50;;;-5.34;100.00
11345;BME280;5727;42.600;23.028;2024-01-11T03:51:59;94416.81;;;-5.36;100.00
11345;BME280;5727;42.600;23.028;2024-01-11T03:54:26;94420.53;;;-5.32;100.00
11345;BME280;5727;42.600;23.028;2024-01-11T03:56:53;94421.66;;;-5.28;100.00
11345;BME280;5727;42.600;23.028;2024-01-11T03:59:19;94421.66;;;-5.28;100.00
11345;BME280;5727;42.600;23.028;2024-01-11T04:01:46;94413.00;;;-5.27;100.00
11345;BME280;5727;42.600;23.028;2024-01-11T04:04:14;94412.84;;;-5.32;100.00
11345;BME280;5727;42.600;23.028;2024-01-11T04:06:41;94417.53;;;-5.29;100.00
11345;BME280;5727;42.600;23.028;2024-01-11T04:09:09;94412.84;;;-5.32;100.00
11345;BME280;5727;42.600;23.028;2024-01-11T04:11:36;94408.31;;;-5.30;100.00
11345;BME280;5727;42.600;23.028;2024-01-11T04:14:03;94406.97;;;-5.33;100.00
11345;BME280;5727;42.600;23.028;2024-01-11T04:16:30;94397.16;;;-5.36;100.00
11345;BME280;5727;42.600;23.028;2024-01-11T04:18:57;94400.94;;;-5.38;100.00
11345;BME280;5727;42.600;23.028;2024-01-11T04:21:24;94394.06;;;-5.38;100.00
11345;BME280;5727;42.600;23.028;2024-01-11T04:23:54;94394.81;;;-5.37;100.00
11345;BME280;5727;42.600;23.028;2024-01-11T04:26:22;94392.25;;;-5.37;100.00
11345;BME280;5727;42.600;23.028;2024-01-11T04:28:50;94390.94;;;-5.40;100.00
11345;BME280;5727;42.600;23.028;2024-01-11T04:31:17;94384.47;;;-5.42;100.00
11345;BME280;5727;42.600;23.028;2024-01-11T04:33:44;94386.00;;;-5.41;100.00
11345;BME280;5727;42.600;23.028;2024-01-11T04:36:12;94385.25;;;-5.42;100.00
11345;BME280;5727;42.600;23.028;2024-01-11T04:38:40;94390.56;;;-5.43;100.00
11345;BME280;5727;42.600;23.028;2024-01-11T04:41:07;94384.88;;;-5.45;100.00
11345;BME280;5727;42.600;23.028;2024-01-11T04:43:37;94396.53;;;-5.49;100.00
11345;BME280;5727;42.600;23.028;2024-01-11T04:46:13;94396.53;;;-5.49;100.00
11345;BME280;5727;42.600;23.028;2024-01-11T04:48:40;94396.53;;;-5.49;100.00
11345;BME280;5727;42.600;23.028;2024-01-11T04:51:07;94399.22;;;-5.44;100.00
11345;BME280;5727;42.600;23.028;2024-01-11T04:53:36;94393.53;;;-5.46;100.00
11345;BME280;5727;42.600;23.028;2024-01-11T04:56:03;94400.25;;;-5.52;100.00
11345;BME280;5727;42.600;23.028;2024-01-11T04:58:30;94398.91;;;-5.54;100.00
11345;BME280;5727;42.600;23.028;2024-01-11T05:00:59;94405.16;;;-5.50;100.00
11345;BME280;5727;42.600;23.028;2024-01-11T05:03:27;94395.38;;;-5.53;100.00
11345;BME280;5727;42.600;23.028;2024-01-11T05:05:54;94399.06;;;-5.49;100.00
11345;BME280;5727;42.600;23.028;2024-01-11T05:08:22;94400.06;;;-5.50;100.00
11345;BME280;5727;42.600;23.028;2024-01-11T05:10:49;94394.16;;;-5.51;100.00
11345;BME280;5727;42.600;23.028;2024-01-11T05:13:16;94399.47;;;-5.52;100.00
11345;BME280;5727;42.600;23.028;2024-01-11T05:15:44;94399.47;;;-5.52;100.00
11345;BME280;5727;42.600;23.028;2024-01-11T05:18:12;94397.50;;;-5.50;100.00
11345;BME280;5727;42.600;23.028;2024-01-11T05:20:39;94394.94;;;-5.50;100.00
11345;BME280;5727;42.600;23.028;2024-01-11T05:23:06;94389.88;;;-5.57;100.00
11345;BME280;5727;42.600;23.028;2024-01-11T05:25:33;94390.88;;;-5.58;100.00
11345;BME280;5727;42.600;23.028;2024-01-11T05:28:01;94381.88;;;-5.61;100.00
11345;BME280;5727;42.600;23.028;2024-01-11T05:30:28;94378.34;;;-5.60;100.00
11345;BME280;5727;42.600;23.028;2024-01-11T05:32:56;94384.25;;;-5.59;100.00
11345;BME280;5727;42.600;23.028;2024-01-11T05:35:24;94381.47;;;-5.57;100.00
11345;BME280;5727;42.600;23.028;2024-01-11T05:37:53;94381.13;;;-5.61;100.00
11345;BME280;5727;42.600;23.028;2024-01-11T05:40:20;94382.88;;;-5.62;100.00
11345;BME280;5727;42.600;23.028;2024-01-11T05:42:47;94376.19;;;-5.63;100.00
11345;BME280;5727;42.600;23.028;2024-01-11T05:45:14;94376.19;;;-5.63;100.00
11345;BME280;5727;42.600;23.028;2024-01-11T05:47:42;94376.19;;;-5.63;100.00
11345;BME280;5727;42.600;23.028;2024-01-11T05:50:10;94375.44;;;-5.63;100.00
11345;BME280;5727;42.600;23.028;2024-01-11T05:52:38;94375.63;;;-5.65;100.00
11345;BME280;5727;42.600;23.028;2024-01-11T05:55:05;94381.72;;;-5.66;100.00
11345;BME280;5727;42.600;23.028;2024-01-11T05:57:32;94372.13;;;-5.70;100.00
11345;BME280;5727;42.600;23.028;2024-01-11T05:59:59;94369.94;;;-5.67;100.00
11345;BME280;5727;42.600;23.028;2024-01-11T06:02:26;94365.41;;;-5.65;100.00
11345;BME280;5727;42.600;23.028;2024-01-11T06:04:53;94362.84;;;-5.65;100.00
11345;BME280;5727;42.600;23.028;2024-01-11T06:07:21;94354.81;;;-5.62;100.00
11345;BME280;5727;42.600;23.028;2024-01-11T06:09:49;94351.25;;;-5.61;100.00
11345;BME280;5727;42.600;23.028;2024-01-11T06:12:16;94354.38;;;-5.59;100.00
11345;BME280;5727;42.600;23.028;2024-01-11T06:14:43;94359.06;;;-5.55;100.00
11345;BME280;5727;42.600;23.028;2024-01-11T06:17:10;94352.97;;;-5.54;100.00
11345;BME280;5727;42.600;23.028;2024-01-11T06:19:37;94352.25;;;-5.62;100.00
11345;BME280;5727;42.600;23.028;2024-01-11T06:22:04;94357.75;;;-5.65;100.00
11345;BME280;5727;42.600;23.028;2024-01-11T06:24:31;94360.03;;;-5.75;100.00
11345;BME280;5727;42.600;23.028;2024-01-11T06:27:00;94359.44;;;-5.77;100.00
11345;BME280;5727;42.600;23.028;2024-01-11T06:29:27;94359.84;;;-5.80;100.00
11345;BME280;5727;42.600;23.028;2024-01-11T06:31:54;94362.75;;;-5.76;100.00
11345;BME280;5727;42.600;23.028;2024-01-11T06:34:21;94358.16;;;-5.86;100.00
11345;BME280;5727;42.600;23.028;2024-01-11T06:36:48;94356.72;;;-5.82;100.00
11345;BME280;5727;42.600;23.028;2024-01-11T06:39:15;94355.19;;;-5.83;100.00
11345;BME280;5727;42.600;23.028;2024-01-11T06:41:42;94353.78;;;-5.79;100.00
11345;BME280;5727;42.600;23.028;2024-01-11T06:44:10;94354.34;;;-5.77;100.00
11345;BME280;5727;42.600;23.028;2024-01-11T06:46:37;94350.78;;;-5.76;100.00
11345;BME280;5727;42.600;23.028;2024-01-11T06:49:06;94349.44;;;-5.78;100.00
11345;BME280;5727;42.600;23.028;2024-01-11T06:51:33;94343.50;;;-5.72;100.00
11345;BME280;5727;42.600;23.028;2024-01-11T06:54:00;94341.50;;;-5.70;100.00
11345;BME280;5727;42.600;23.028;2024-01-11T06:56:28;94340.47;;;-5.63;100.00
11345;BME280;5727;42.600;23.028;2024-01-11T06:58:55;94335.34;;;-5.63;100.00
11345;BME280;5727;42.600;23.028;2024-01-11T07:01:24;94347.72;;;-5.60;100.00
11345;BME280;5727;42.600;23.028;2024-01-11T07:03:51;94347.63;;;-5.53;100.00
11345;BME280;5727;42.600;23.028;2024-01-11T07:06:19;94348.28;;;-5.39;100.00
11345;BME280;5727;42.600;23.028;2024-01-11T07:08:46;94348.16;;;-5.26;100.00
11345;BME280;5727;42.600;23.028;2024-01-11T07:11:13;94345.69;;;-5.15;100.00
11345;BME280;5727;42.600;23.028;2024-01-11T07:13:40;94349.28;;;-5.04;100.00
11345;BME280;5727;42.600;23.028;2024-01-11T07:16:08;94345.59;;;-4.90;100.00
11345;BME280;5727;42.600;23.028;2024-01-11T07:18:36;94350.66;;;-4.72;100.00
11345;BME280;5727;42.600;23.028;2024-01-11T07:21:03;94344.81;;;-4.61;100.00
11345;BME280;5727;42.600;23.028;2024-01-11T07:23:30;94343.53;;;-4.52;100.00
11345;BME280;5727;42.600;23.028;2024-01-11T07:25:57;94339.97;;;-4.51;100.00
11345;BME280;5727;42.600;23.028;2024-01-11T07:28:24;94329.88;;;-4.46;100.00
11345;BME280;5727;42.600;23.028;2024-01-11T07:30:52;94335.84;;;-4.52;100.00
11345;BME280;5727;42.600;23.028;2024-01-11T07:33:19;94336.47;;;-4.38;100.00
11345;BME280;5727;42.600;23.028;2024-01-11T07:35:47;94332.13;;;-4.26;100.00
11345;BME280;5727;42.600;23.028;2024-01-11T07:38:14;94326.47;;;-4.17;100.00
11345;BME280;5727;42.600;23.028;2024-01-11T07:40:41;94329.72;;;-4.10;100.00
11345;BME280;5727;42.600;23.028;2024-01-11T07:43:09;94323.03;;;-4.11;100.00
11345;BME280;5727;42.600;23.028;2024-01-11T07:45:36;94323.75;;;-4.04;100.00
11345;BME280;5727;42.600;23.028;2024-01-11T07:48:04;94321.94;;;-3.92;100.00
11345;BME280;5727;42.600;23.028;2024-01-11T07:50:31;94323.75;;;-3.81;100.00
11345;BME280;5727;42.600;23.028;2024-01-11T07:52:59;94319.28;;;-3.74;100.00
11345;BME280;5727;42.600;23.028;2024-01-11T07:55:26;94319.53;;;-3.63;100.00
11345;BME280;5727;42.600;23.028;2024-01-11T07:57:54;94316.63;;;-3.55;100.00
11345;BME280;5727;42.600;23.028;2024-01-11T08:00:21;94311.72;;;-3.45;100.00
11345;BME280;5727;42.600;23.028;2024-01-11T08:02:48;94317.13;;;-3.30;100.00
11345;BME280;5727;42.600;23.028;2024-01-11T08:05:15;94314.47;;;-3.24;100.00
11345;BME280;5727;42.600;23.028;2024-01-11T08:07:43;94308.75;;;-3.14;100.00
11345;BME280;5727;42.600;23.028;2024-01-11T08:10:11;94301.28;;;-3.04;100.00
11345;BME280;5727;42.600;23.028;2024-01-11T08:12:38;94304.81;;;-2.94;100.00
11345;BME280;5727;42.600;23.028;2024-01-11T08:15:06;94300.09;;;-2.85;100.00
11345;BME280;5727;42.600;23.028;2024-01-11T08:17:38;94299.88;;;-2.84;100.00
11345;BME280;5727;42.600;23.028;2024-01-11T08:20:06;94293.84;;;-2.78;100.00
11345;BME280;5727;42.600;23.028;2024-01-11T08:22:33;94299.38;;;-2.69;100.00
11345;BME280;5727;42.600;23.028;2024-01-11T08:25:01;94294.97;;;-2.57;100.00
11345;BME280;5727;42.600;23.028;2024-01-11T08:27:31;94298.75;;;-2.48;100.00
11345;BME280;5727;42.600;23.028;2024-01-11T08:29:59;94301.44;;;-2.38;100.00
11345;BME280;5727;42.600;23.028;2024-01-11T08:32:27;94297.03;;;-2.26;100.00
11345;BME280;5727;42.600;23.028;2024-01-11T08:34:56;94295.34;;;-2.20;100.00
11345;BME280;5727;42.600;23.028;2024-01-11T08:37:23;94289.53;;;-2.44;100.00
11345;BME280;5727;42.600;23.028;2024-01-11T08:39:50;94291.72;;;-2.52;100.00
11345;BME280;5727;42.600;23.028;2024-01-11T08:42:17;94289.94;;;-2.80;100.00
11345;BME280;5727;42.600;23.028;2024-01-11T08:44:46;94293.19;;;-3.24;100.00
11345;BME280;5727;42.600;23.028;2024-01-11T08:47:13;94297.91;;;-3.44;100.00
11345;BME280;5727;42.600;23.028;2024-01-11T08:49:40;94295.13;;;-3.54;100.00
11345;BME280;5727;42.600;23.028;2024-01-11T08:52:07;94290.31;;;-3.39;100.00
11345;BME280;5727;42.600;23.028;2024-01-11T08:54:34;94291.44;;;-3.47;100.00
11345;BME280;5727;42.600;23.028;2024-01-11T08:57:01;94283.34;;;-3.44;100.00
11345;BME280;5727;42.600;23.028;2024-01-11T08:59:28;94276.97;;;-3.41;100.00
11345;BME280;5727;42.600;23.028;2024-01-11T09:01:57;94269.72;;;-3.33;100.00
11345;BME280;5727;42.600;23.028;2024-01-11T09:04:24;94268.22;;;-3.17;100.00
11345;BME280;5727;42.600;23.028;2024-01-11T09:06:51;94272.03;;;-2.92;100.00
11345;BME280;5727;42.600;23.028;2024-01-11T09:09:18;94273.50;;;-2.67;100.00
11345;BME280;5727;42.600;23.028;2024-01-11T09:11:45;94268.47;;;-2.46;100.00
11345;BME280;5727;42.600;23.028;2024-01-11T09:14:11;94260.94;;;-2.36;100.00
11345;BME280;5727;42.600;23.028;2024-01-11T09:16:39;94259.41;;;-2.20;100.00
11345;BME280;5727;42.600;23.028;2024-01-11T09:19:07;94250.16;;;-2.05;100.00
11345;BME280;5727;42.600;23.028;2024-01-11T09:21:34;94253.81;;;-2.01;100.00
11345;BME280;5727;42.600;23.028;2024-01-11T09:24:02;94249.44;;;-2.00;100.00
11345;BME280;5727;42.600;23.028;2024-01-11T09:26:29;94252.38;;;-1.92;100.00
11345;BME280;5727;42.600;23.028;2024-01-11T09:28:56;94247.72;;;-1.95;100.00
11345;BME280;5727;42.600;23.028;2024-01-11T09:31:23;94249.75;;;-1.97;100.00
11345;BME280;5727;42.600;23.028;2024-01-11T09:33:50;94241.78;;;-1.78;100.00
11345;BME280;5727;42.600;23.028;2024-01-11T09:36:19;94237.28;;;-1.71;100.00
11345;BME280;5727;42.600;23.028;2024-01-11T09:38:46;94230.34;;;-1.49;100.00
11345;BME280;5727;42.600;23.028;2024-01-11T09:41:14;94227.31;;;-1.46;100.00
11345;BME280;5727;42.600;23.028;2024-01-11T09:43:41;94219.31;;;-1.28;100.00
11345;BME280;5727;42.600;23.028;2024-01-11T09:46:10;94220.31;;;-1.08;100.00
11345;BME280;5727;42.600;23.028;2024-01-11T09:48:40;94222.44;;;-1.00;100.00
11345;BME280;5727;42.600;23.028;2024-01-11T09:51:10;94220.16;;;-0.96;100.00
11345;BME280;5727;42.600;23.028;2024-01-11T09:53:39;94210.47;;;-0.89;100.00
11345;BME280;5727;42.600;23.028;2024-01-11T09:56:08;94204.31;;;-0.88;100.00
11345;BME280;5727;42.600;23.028;2024-01-11T09:58:36;94204.00;;;-0.65;100.00
11345;BME280;5727;42.600;23.028;2024-01-11T10:01:09;94196.47;;;-0.45;100.00
11345;BME280;5727;42.600;23.028;2024-01-11T10:03:39;94192.75;;;-0.27;100.00
11345;BME280;5727;42.600;23.028;2024-01-11T10:06:07;94183.81;;;-0.15;100.00
11345;BME280;5727;42.600;23.028;2024-01-11T10:08:35;94182.84;;;-0.04;100.00
11345;BME280;5727;42.600;23.028;2024-01-11T10:11:04;94177.50;;;0.03;100.00
11345;BME280;5727;42.600;23.028;2024-01-11T10:13:31;94179.34;;;0.08;100.00
11345;BME280;5727;42.600;23.028;2024-01-11T10:16:06;94174.72;;;0.15;100.00
11345;BME280;5727;42.600;23.028;2024-01-11T10:18:33;94164.63;;;0.08;100.00
11345;BME280;5727;42.600;23.028;2024-01-11T10:21:01;94161.06;;;0.09;100.00
11345;BME280;5727;42.600;23.028;2024-01-11T10:23:28;94161.13;;;0.19;100.00
11345;BME280;5727;42.600;23.028;2024-01-11T10:25:56;94152.09;;;0.22;100.00
11345;BME280;5727;42.600;23.028;2024-01-11T10:28:27;94147.28;;;0.40;100.00
11345;BME280;5727;42.600;23.028;2024-01-11T10:30:54;94149.06;;;0.35;100.00
11345;BME280;5727;42.600;23.028;2024-01-11T10:33:21;94142.16;;;0.45;98.65
11345;BME280;5727;42.600;23.028;2024-01-11T10:35:49;94126.94;;;0.44;98.78
11345;BME280;5727;42.600;23.028;2024-01-11T10:38:17;94132.63;;;0.51;98.93
11345;BME280;5727;42.600;23.028;2024-01-11T10:40:44;94130.34;;;0.64;97.88
11345;BME280;5727;42.600;23.028;2024-01-11T10:43:12;94121.13;;;0.83;96.89
11345;BME280;5727;42.600;23.028;2024-01-11T10:45:44;94118.81;;;0.92;96.45
11345;BME280;5727;42.600;23.028;2024-01-11T10:48:14;94114.66;;;0.81;95.28
11345;BME280;5727;42.600;23.028;2024-01-11T10:50:43;94107.97;;;1.00;95.00
11345;BME280;5727;42.600;23.028;2024-01-11T10:53:24;94110.59;;;1.15;94.06
11345;BME280;5727;42.600;23.028;2024-01-11T10:55:53;94101.03;;;1.16;93.38
11345;BME280;5727;42.600;23.028;2024-01-11T10:58:23;94095.88;;;1.01;94.23
11345;BME280;5727;42.600;23.028;2024-01-11T11:00:54;94092.50;;;1.00;94.50
11345;BME280;5727;42.600;23.028;2024-01-11T11:03:23;94090.72;;;1.16;94.65
11345;BME280;5727;42.600;23.028;2024-01-11T11:05:53;94094.34;;;1.30;94.30
11345;BME280;5727;42.600;23.028;2024-01-11T11:08:22;94085.81;;;1.44;93.48
11345;BME280;5727;42.600;23.028;2024-01-11T11:10:51;94081.16;;;1.46;92.51
11345;BME280;5727;42.600;23.028;2024-01-11T11:13:21;94074.72;;;1.44;91.86
11345;BME280;5727;42.600;23.028;2024-01-11T11:15:48;94067.75;;;1.59;91.33
11345;BME280;5727;42.600;23.028;2024-01-11T11:18:17;94064.38;;;1.59;90.50
11345;BME280;5727;42.600;23.028;2024-01-11T11:20:45;94050.66;;;1.68;91.37
11345;BME280;5727;42.600;23.028;2024-01-11T11:23:15;94049.34;;;1.76;90.95
11345;BME280;5727;42.600;23.028;2024-01-11T11:25:44;94051.41;;;1.79;89.50
11345;BME280;5727;42.600;23.028;2024-01-11T11:28:12;94041.84;;;1.90;89.22
11345;BME280;5727;42.600;23.028;2024-01-11T11:30:41;94042.81;;;1.99;87.58
11345;BME280;5727;42.600;23.028;2024-01-11T11:33:09;94035.06;;;2.04;86.92
11345;BME280;5727;42.600;23.028;2024-01-11T11:35:38;94023.66;;;2.15;87.35
11345;BME280;5727;42.600;23.028;2024-01-11T11:38:05;94023.66;;;2.10;86.15
11345;BME280;5727;42.600;23.028;2024-01-11T11:40:33;94016.66;;;2.15;86.56
11345;BME280;5727;42.600;23.028;2024-01-11T11:43:04;94013.00;;;2.21;87.11
11345;BME280;5727;42.600;23.028;2024-01-11T11:45:32;94001.84;;;2.31;89.52
11345;BME280;5727;42.600;23.028;2024-01-11T11:47:59;93997.16;;;2.38;86.67
11345;BME280;5727;42.600;23.028;2024-01-11T11:50:26;93992.00;;;2.38;86.40
11345;BME280;5727;42.600;23.028;2024-01-11T11:52:55;93987.34;;;2.40;85.80
11345;BME280;5727;42.600;23.028;2024-01-11T11:55:23;93985.94;;;2.52;86.50
11345;BME280;5727;42.600;23.028;2024-01-11T11:57:51;93981.63;;;2.43;85.04
11345;BME280;5727;42.600;23.028;2024-01-11T12:00:19;93977.91;;;2.59;85.89
11345;BME280;5727;42.600;23.028;2024-01-11T12:02:46;93982.97;;;2.69;86.53
11345;BME280;5727;42.600;23.028;2024-01-11T12:05:14;93971.03;;;2.78;85.39
11345;BME280;5727;42.600;23.028;2024-01-11T12:07:41;93968.56;;;2.97;85.64
11345;BME280;5727;42.600;23.028;2024-01-11T12:10:09;93968.41;;;3.12;85.29
11345;BME280;5727;42.600;23.028;2024-01-11T12:12:37;93972.22;;;3.19;85.21
11345;BME280;5727;42.600;23.028;2024-01-11T12:15:06;93956.66;;;3.24;85.41
11345;BME280;5727;42.600;23.028;2024-01-11T12:17:33;93955.09;;;3.28;85.69
11345;BME280;5727;42.600;23.028;2024-01-11T12:20:00;93960.59;;;3.45;84.84
11345;BME280;5727;42.600;23.028;2024-01-11T12:22:27;93949.53;;;3.40;83.93
11345;BME280;5727;42.600;23.028;2024-01-11T12:24:54;93955.94;;;3.47;84.54
11345;BME280;5727;42.600;23.028;2024-01-11T12:27:24;93950.00;;;3.65;83.24
11345;BME280;5727;42.600;23.028;2024-01-11T12:29:52;93939.97;;;3.83;83.52
11345;BME280;5727;42.600;23.028;2024-01-11T12:32:19;93954.09;;;3.71;81.50
11345;BME280;5727;42.600;23.028;2024-01-11T12:34:46;93945.22;;;3.78;83.86
11345;BME280;5727;42.600;23.028;2024-01-11T12:37:15;93944.50;;;3.96;81.40
11345;BME280;5727;42.600;23.028;2024-01-11T12:39:42;93939.97;;;3.83;80.35
11345;BME280;5727;42.600;23.028;2024-01-11T12:42:09;93936.25;;;3.70;80.90
11345;BME280;5727;42.600;23.028;2024-01-11T12:44:39;93935.84;;;3.82;81.98
11345;BME280;5727;42.600;23.028;2024-01-11T12:47:07;93932.78;;;3.98;81.08
11345;BME280;5727;42.600;23.028;2024-01-11T12:49:34;93932.78;;;3.98;79.18
11345;BME280;5727;42.600;23.028;2024-01-11T12:52:00;93926.06;;;4.16;78.34
11345;BME280;5727;42.600;23.028;2024-01-11T12:54:27;93927.47;;;4.64;76.43
11345;BME280;5727;42.600;23.028;2024-01-11T12:56:55;93925.00;;;5.05;74.74